createdAt,value
2023-06-17T15:11:50.885Z,28.30
2023-06-17T15:32:34.124Z,27.90
2023-06-17T15:35:01.325Z,27.70
2023-06-17T15:37:31.242Z,27.70
2023-06-17T15:39:58.458Z,27.70
2023-06-17T15:42:25.593Z,27.60
2023-06-17T15:44:52.576Z,27.60
2023-06-17T15:47:19.565Z,27.60
2023-06-17T15:49:46.619Z,27.70
2023-06-17T15:52:13.989Z,27.60
2023-06-17T15:54:41.420Z,27.60
2023-06-17T15:57:10.005Z,27.50
2023-06-17T15:59:37.238Z,27.40
2023-06-17T16:02:05.019Z,27.50
2023-06-17T16:04:35.839Z,27.40
2023-06-17T16:07:07.303Z,27.30
2023-06-17T16:09:36.267Z,27.40
2023-06-17T16:12:04.319Z,27.30
2023-06-17T16:14:33.614Z,27.30
2023-06-17T16:17:01.345Z,27.30
2023-06-17T16:19:28.411Z,27.20
2023-06-17T16:21:55.711Z,27.30
2023-06-17T16:24:23.181Z,27.30
2023-06-17T16:26:50.182Z,27.30
2023-06-17T16:29:17.510Z,27.30
2023-06-17T16:31:46.194Z,27.30
2023-06-17T16:34:13.594Z,27.30
2023-06-17T16:36:40.982Z,27.20
2023-06-17T16:39:10.122Z,27.20
2023-06-17T16:41:37.884Z,27.10
2023-06-17T16:44:05.067Z,27.10
2023-06-17T16:46:32.854Z,27.10
2023-06-17T16:48:59.880Z,27.10
2023-06-17T16:51:26.941Z,27.00
2023-06-17T16:53:53.906Z,27.00
2023-06-17T16:56:20.888Z,27.00
2023-06-17T16:58:48.102Z,27.00
2023-06-17T17:01:15.087Z,27.00
2023-06-17T17:03:42.776Z,26.90
2023-06-17T17:06:09.997Z,26.90
2023-06-17T17:08:36.984Z,26.80
2023-06-17T17:11:04.204Z,26.90
2023-06-17T17:13:43.536Z,26.80
2023-06-17T17:16:14.591Z,26.80
2023-06-17T17:18:41.536Z,26.80
2023-06-17T17:21:08.974Z,26.80
2023-06-17T17:23:35.999Z,26.70
2023-06-17T17:26:02.981Z,26.70
2023-06-17T17:28:30.147Z,26.70
2023-06-17T17:30:57.108Z,26.70
2023-06-17T17:33:25.045Z,26.70
2023-06-17T17:35:52.939Z,26.70
2023-06-17T17:38:19.885Z,26.70
2023-06-17T17:40:46.846Z,26.70
2023-06-17T17:43:13.876Z,26.70
2023-06-17T17:45:41.282Z,26.70
2023-06-17T17:48:08.397Z,26.70
2023-06-17T17:50:35.706Z,26.70
2023-06-17T17:53:03.143Z,26.70
2023-06-17T17:55:30.337Z,26.60
2023-06-17T17:57:58.104Z,26.60
2023-06-17T18:00:25.164Z,26.60
2023-06-17T18:02:52.256Z,26.50
2023-06-17T18:05:19.343Z,26.50
2023-06-17T18:07:48.239Z,26.50
2023-06-17T18:10:16.830Z,26.40
2023-06-17T18:12:43.880Z,26.30
2023-06-17T18:15:11.624Z,26.20
2023-06-17T18:17:38.879Z,26.10
2023-06-17T18:20:07.223Z,26.10
2023-06-17T18:22:34.191Z,26.00
2023-06-17T18:25:01.578Z,26.00
2023-06-17T18:27:35.792Z,25.90
2023-06-17T18:30:04.683Z,25.90
2023-06-17T18:32:32.112Z,25.90
2023-06-17T18:34:59.178Z,25.90
2023-06-17T18:37:26.453Z,25.80
2023-06-17T18:39:53.504Z,25.70
2023-06-17T18:42:20.582Z,25.60
2023-06-17T18:44:48.269Z,25.60
2023-06-17T18:47:15.629Z,25.50
2023-06-17T18:49:43.691Z,25.40
2023-06-17T18:52:10.686Z,25.30
2023-06-17T18:54:37.849Z,25.30
2023-06-17T18:57:05.355Z,25.20
2023-06-17T18:59:32.375Z,25.10
2023-06-17T19:01:59.356Z,25.00
2023-06-17T19:04:26.387Z,25.00
2023-06-17T19:06:53.363Z,24.80
2023-06-17T19:09:20.380Z,24.60
2023-06-17T19:11:47.341Z,24.50
2023-06-17T19:14:14.370Z,24.40
2023-06-17T19:16:42.060Z,24.30
2023-06-17T19:19:09.144Z,24.10
2023-06-17T19:21:36.372Z,24.10
2023-06-17T19:24:03.417Z,24.00
2023-06-17T19:26:30.533Z,23.80
2023-06-17T19:28:57.476Z,23.70
2023-06-17T19:31:26.011Z,23.60
2023-06-17T19:33:56.428Z,23.40
2023-06-17T19:36:23.386Z,23.40
2023-06-17T19:38:50.473Z,23.40
2023-06-17T19:41:17.412Z,23.30
2023-06-17T19:43:47.990Z,23.20
2023-06-17T19:46:17.712Z,23.20
2023-06-17T19:48:45.207Z,23.10
2023-06-17T19:51:12.624Z,23.10
2023-06-17T19:53:39.515Z,23.00
2023-06-17T19:56:07.851Z,22.90
2023-06-17T19:58:34.837Z,22.90
2023-06-17T20:01:03.438Z,22.90
2023-06-17T20:03:30.571Z,22.80
2023-06-17T20:05:57.912Z,22.70
2023-06-17T20:08:25.464Z,22.50
2023-06-17T20:10:52.438Z,22.40
2023-06-17T20:13:19.396Z,22.30
2023-06-17T20:15:47.869Z,22.20
2023-06-17T20:18:14.920Z,22.10
2023-06-17T20:20:41.916Z,22.00
2023-06-17T20:23:09.521Z,21.80
2023-06-17T20:25:36.572Z,21.70
2023-06-17T20:28:03.620Z,21.60
2023-06-17T20:30:30.675Z,21.50
2023-06-17T20:32:57.630Z,21.40
2023-06-17T20:35:24.703Z,21.30
2023-06-17T20:37:52.367Z,21.30
2023-06-17T20:40:19.593Z,21.20
2023-06-17T20:42:46.800Z,21.20
2023-06-17T20:45:13.837Z,21.20
2023-06-17T20:47:40.921Z,21.20
2023-06-17T20:50:09.497Z,21.10
2023-06-17T20:52:36.439Z,21.10
2023-06-17T20:55:03.424Z,21.10
2023-06-17T20:57:31.141Z,21.10
2023-06-17T20:59:58.492Z,21.00
2023-06-17T21:02:25.807Z,21.00
2023-06-17T21:04:53.032Z,20.90
2023-06-17T21:07:20.210Z,20.90
2023-06-17T21:09:47.726Z,20.80
2023-06-17T21:12:14.765Z,20.80
2023-06-17T21:14:41.719Z,20.80
2023-06-17T21:17:08.868Z,20.70
2023-06-17T21:19:36.113Z,20.90
2023-06-17T21:22:03.177Z,21.00
2023-06-17T21:24:30.586Z,21.20
2023-06-17T21:26:57.592Z,21.30
2023-06-17T21:29:24.649Z,21.40
2023-06-17T21:31:51.715Z,21.50
2023-06-17T21:34:18.782Z,21.50
2023-06-17T21:36:45.761Z,21.40
2023-06-17T21:39:12.727Z,21.40
2023-06-17T21:41:39.711Z,21.30
2023-06-17T21:44:06.760Z,21.20
2023-06-17T21:46:34.382Z,21.10
2023-06-17T21:49:01.667Z,20.90
2023-06-17T21:51:28.866Z,20.90
2023-06-17T21:53:56.243Z,20.80
2023-06-17T21:56:23.483Z,20.70
2023-06-17T21:58:50.484Z,20.60
2023-06-17T22:01:18.380Z,20.50
2023-06-17T22:03:45.722Z,20.40
2023-06-17T22:06:12.898Z,20.30
2023-06-17T22:08:43.774Z,20.20
2023-06-17T22:11:12.682Z,20.10
2023-06-17T22:13:39.984Z,20.00
2023-06-17T22:16:07.111Z,20.00
2023-06-17T22:18:34.147Z,19.90
2023-06-17T22:21:01.330Z,19.90
2023-06-17T22:23:28.508Z,19.80
2023-06-17T22:25:56.886Z,19.80
2023-06-17T22:28:23.872Z,19.70
2023-06-17T22:30:51.098Z,19.60
2023-06-17T22:33:18.106Z,19.60
2023-06-17T22:35:45.167Z,19.60
2023-06-17T22:38:14.029Z,19.60
2023-06-17T22:40:41.034Z,19.70
2023-06-17T22:43:08.333Z,19.70
2023-06-17T22:45:35.389Z,19.70
2023-06-17T22:48:03.618Z,19.70
2023-06-17T22:50:31.691Z,19.60
2023-06-17T22:52:59.116Z,19.60
2023-06-17T22:55:26.299Z,19.50
2023-06-17T22:57:53.344Z,19.50
2023-06-17T23:00:20.675Z,19.40
2023-06-17T23:02:47.919Z,19.40
2023-06-17T23:05:15.037Z,19.20
2023-06-17T23:07:42.347Z,19.20
2023-06-17T23:10:09.542Z,19.20
2023-06-17T23:12:36.500Z,19.20
2023-06-17T23:15:03.942Z,19.20
2023-06-17T23:17:31.121Z,19.10
2023-06-17T23:20:00.291Z,19.10
2023-06-17T23:22:31.428Z,19.10
2023-06-17T23:25:02.445Z,19.00
2023-06-17T23:27:32.012Z,19.00
2023-06-17T23:30:00.546Z,19.00
2023-06-17T23:32:27.911Z,19.00
2023-06-17T23:34:54.908Z,18.90
2023-06-17T23:37:21.948Z,19.00
2023-06-17T23:39:49.257Z,19.00
2023-06-17T23:42:16.482Z,18.90
2023-06-17T23:44:43.634Z,19.00
2023-06-17T23:47:15.403Z,19.00
2023-06-17T23:49:42.421Z,18.90
2023-06-17T23:52:11.052Z,19.00
2023-06-17T23:54:38.620Z,19.00
2023-06-17T23:57:05.844Z,19.00
2023-06-17T23:59:33.489Z,19.00
